sensor_id;sensor_type;location;lat;lon;timestamp;pressure;altitude;pressure_sealevel;temperature;humidity
68226;BME280;55045;49.410;11.030;2023-04-08T00:02:16;98208.16;;;4.44;100.00
68226;BME280;55045;49.410;11.030;2023-04-08T00:05:19;98207.19;;;4.48;100.00
68226;BME280;55045;49.410;11.030;2023-04-08T00:08:24;98196.97;;;4.46;100.00
68226;BME280;55045;49.410;11.030;2023-04-08T00:11:27;98207.47;;;4.36;100.00
68226;BME280;55045;49.410;11.030;2023-04-08T00:14:30;98211.69;;;4.40;100.00
68226;BME280;55045;49.410;11.030;2023-04-08T00:17:33;98218.34;;;4.47;100.00
68226;BME280;55045;49.410;11.030;2023-04-08T00:20:37;98208.44;;;4.31;100.00
68226;BME280;55045;49.410;11.030;2023-04-08T00:23:41;98209.16;;;4.37;100.00
68226;BME280;55045;49.410;11.030;2023-04-08T00:26:45;98213.91;;;4.55;100.00
68226;BME280;55045;49.410;11.030;2023-04-08T00:29:48;98211.13;;;4.64;100.00
68226;BME280;55045;49.410;11.030;2023-04-08T00:32:51;98212.09;;;4.58;100.00
68226;BME280;55045;49.410;11.030;2023-04-08T00:35:55;98216.38;;;4.58;100.00
68226;BME280;55045;49.410;11.030;2023-04-08T00:38:59;98211.19;;;4.61;100.00
68226;BME280;55045;49.410;11.030;2023-04-08T00:42:03;98209.56;;;4.57;100.00
68226;BME280;55045;49.410;11.030;2023-04-08T00:45:07;98208.75;;;4.55;100.00
68226;BME280;55045;49.410;11.030;2023-04-08T00:48:10;98210.34;;;4.60;100.00
68226;BME280;55045;49.410;11.030;2023-04-08T00:51:14;98213.78;;;4.59;100.00
68226;BME280;55045;49.410;11.030;2023-04-08T00:54:19;98217.13;;;4.63;100.00
68226;BME280;55045;49.410;11.030;2023-04-08T00:57:22;98219.91;;;4.54;100.00
68226;BME280;55045;49.410;11.030;2023-04-08T01:00:26;98214.09;;;4.46;100.00
68226;BME280;55045;49.410;11.030;2023-04-08T01:03:37;98212.22;;;4.54;100.00
68226;BME280;55045;49.410;11.030;2023-04-08T01:06:47;98216.09;;;4.33;100.00
68226;BME280;55045;49.410;11.030;2023-04-08T01:09:55;98217.78;;;4.34;100.00
68226;BME280;55045;49.410;11.030;2023-04-08T01:13:03;98216.22;;;4.27;100.00
68226;BME280;55045;49.410;11.030;2023-04-08T01:16:12;98216.47;;;4.15;100.00
68226;BME280;55045;49.410;11.030;2023-04-08T01:19:30;98224.16;;;4.16;100.00
68226;BME280;55045;49.410;11.030;2023-04-08T01:22:42;98224.28;;;4.10;100.00
68226;BME280;55045;49.410;11.030;2023-04-08T01:25:50;98222.78;;;4.00;100.00
68226;BME280;55045;49.410;11.030;2023-04-08T01:28:58;98225.06;;;4.14;100.00
68226;BME280;55045;49.410;11.030;2023-04-08T01:32:02;98230.50;;;4.00;100.00
68226;BME280;55045;49.410;11.030;2023-04-08T01:35:07;98229.53;;;4.04;100.00
68226;BME280;55045;49.410;11.030;2023-04-08T01:38:14;98231.09;;;4.11;100.00
68226;BME280;55045;49.410;11.030;2023-04-08T01:41:20;98227.28;;;4.30;100.00
68226;BME280;55045;49.410;11.030;2023-04-08T01:44:25;98220.97;;;4.45;100.00
68226;BME280;55045;49.410;11.030;2023-04-08T01:47:29;98222.78;;;4.40;100.00
68226;BME280;55045;49.410;11.030;2023-04-08T01:50:33;98223.75;;;4.34;100.00
68226;BME280;55045;49.410;11.030;2023-04-08T01:53:37;98217.75;;;4.36;100.00
68226;BME280;55045;49.410;11.030;2023-04-08T01:56:43;98221.00;;;4.44;100.00
68226;BME280;55045;49.410;11.030;2023-04-08T01:59:50;98219.88;;;4.55;100.00
68226;BME280;55045;49.410;11.030;2023-04-08T02:02:56;98224.38;;;4.46;100.00
68226;BME280;55045;49.410;11.030;2023-04-08T02:05:59;98220.00;;;4.51;100.00
68226;BME280;55045;49.410;11.030;2023-04-08T02:09:03;98224.00;;;4.62;100.00
68226;BME280;55045;49.410;11.030;2023-04-08T02:12:09;98226.63;;;4.61;100.00
68226;BME280;55045;49.410;11.030;2023-04-08T02:15:12;98224.13;;;4.56;100.00
68226;BME280;55045;49.410;11.030;2023-04-08T02:18:21;98219.78;;;4.60;100.00
68226;BME280;55045;49.410;11.030;2023-04-08T02:21:32;98217.19;;;4.61;100.00
68226;BME280;55045;49.410;11.030;2023-04-08T02:24:39;98216.47;;;4.55;100.00
68226;BME280;55045;49.410;11.030;2023-04-08T02:27:44;98212.53;;;4.40;100.00
68226;BME280;55045;49.410;11.030;2023-04-08T02:30:51;98228.69;;;4.44;100.00
68226;BME280;55045;49.410;11.030;2023-04-08T02:33:55;98225.16;;;4.48;100.00
68226;BME280;55045;49.410;11.030;2023-04-08T02:37:01;98228.78;;;4.41;100.00
68226;BME280;55045;49.410;11.030;2023-04-08T02:40:22;98230.25;;;4.51;100.00
68226;BME280;55045;49.410;11.030;2023-04-08T02:43:27;98235.41;;;4.49;100.00
68226;BME280;55045;49.410;11.030;2023-04-08T02:46:33;98235.31;;;4.54;100.00
68226;BME280;55045;49.410;11.030;2023-04-08T02:49:37;98233.63;;;4.53;100.00
68226;BME280;55045;49.410;11.030;2023-04-08T02:52:40;98239.63;;;4.53;100.00
68226;BME280;55045;49.410;11.030;2023-04-08T02:55:45;98240.38;;;4.57;100.00
68226;BME280;55045;49.410;11.030;2023-04-08T02:58:50;98237.88;;;4.54;100.00
68226;BME280;55045;49.410;11.030;2023-04-08T03:01:55;98231.28;;;4.44;100.00
68226;BME280;55045;49.410;11.030;2023-04-08T03:04:58;98241.50;;;4.45;100.00
68226;BME280;55045;49.410;11.030;2023-04-08T03:08:01;98234.75;;;4.41;100.00
68226;BME280;55045;49.410;11.030;2023-04-08T03:11:04;98236.44;;;4.42;100.00
68226;BME280;55045;49.410;11.030;2023-04-08T03:14:09;98239.16;;;4.34;100.00
68226;BME280;55045;49.410;11.030;2023-04-08T03:17:12;98243.47;;;4.34;100.00
68226;BME280;55045;49.410;11.030;2023-04-08T03:20:15;98241.72;;;4.34;100.00
68226;BME280;55045;49.410;11.030;2023-04-08T03:23:19;98239.44;;;4.22;100.00
68226;BME280;55045;49.410;11.030;2023-04-08T03:26:22;98242.69;;;4.30;100.00
68226;BME280;55045;49.410;11.030;2023-04-08T03:29:27;98247.03;;;4.27;100.00
68226;BME280;55045;49.410;11.030;2023-04-08T03:35:00;98256.81;;;4.10;100.00
68226;BME280;55045;49.410;11.030;2023-04-08T03:38:03;98254.44;;;4.00;100.00
68226;BME280;55045;49.410;11.030;2023-04-08T03:41:06;98183.53;;;3.52;100.00
68226;BME280;55045;49.410;11.030;2023-04-08T03:44:10;98255.38;;;3.95;100.00
68226;BME280;55045;49.410;11.030;2023-04-08T03:47:13;98256.06;;;4.03;100.00
68226;BME280;55045;49.410;11.030;2023-04-08T03:50:17;98263.03;;;3.96;100.00
68226;BME280;55045;49.410;11.030;2023-04-08T03:53:21;98256.53;;;3.80;100.00
68226;BME280;55045;49.410;11.030;2023-04-08T03:56:24;98260.16;;;3.70;100.00
68226;BME280;55045;49.410;11.030;2023-04-08T03:59:27;98261.94;;;3.65;100.00
68226;BME280;55045;49.410;11.030;2023-04-08T04:02:30;98256.84;;;3.63;100.00
68226;BME280;55045;49.410;11.030;2023-04-08T04:05:35;98260.63;;;3.42;100.00
68226;BME280;55045;49.410;11.030;2023-04-08T04:08:38;98269.19;;;3.41;100.00
68226;BME280;55045;49.410;11.030;2023-04-08T04:11:41;98266.75;;;3.34;100.00
68226;BME280;55045;49.410;11.030;2023-04-08T04:14:45;98264.34;;;3.25;100.00
68226;BME280;55045;49.410;11.030;2023-04-08T04:17:48;98250.13;;;3.05;100.00
68226;BME280;55045;49.410;11.030;2023-04-08T04:20:53;98272.09;;;3.22;100.00
68226;BME280;55045;49.410;11.030;2023-04-08T04:23:56;98268.75;;;3.16;100.00
68226;BME280;55045;49.410;11.030;2023-04-08T04:26:59;98271.25;;;3.21;100.00
68226;BME280;55045;49.410;11.030;2023-04-08T04:30:03;98278.13;;;3.19;100.00
68226;BME280;55045;49.410;11.030;2023-04-08T04:33:07;98275.56;;;3.19;100.00
68226;BME280;55045;49.410;11.030;2023-04-08T04:36:12;98282.28;;;3.25;100.00
68226;BME280;55045;49.410;11.030;2023-04-08T04:39:15;98286.41;;;3.33;100.00
68226;BME280;55045;49.410;11.030;2023-04-08T04:42:19;98292.31;;;3.37;100.00
68226;BME280;55045;49.410;11.030;2023-04-08T04:45:22;98293.88;;;3.47;100.00
68226;BME280;55045;49.410;11.030;2023-04-08T04:48:25;98292.00;;;3.57;100.00
68226;BME280;55045;49.410;11.030;2023-04-08T04:51:31;98296.66;;;3.83;100.00
68226;BME280;55045;49.410;11.030;2023-04-08T04:54:34;98294.84;;;3.88;100.00
68226;BME280;55045;49.410;11.030;2023-04-08T04:57:37;98290.50;;;3.93;100.00
68226;BME280;55045;49.410;11.030;2023-04-08T05:00:41;98298.81;;;4.04;100.00
68226;BME280;55045;49.410;11.030;2023-04-08T05:03:44;98297.22;;;3.98;100.00
68226;BME280;55045;49.410;11.030;2023-04-08T05:06:49;98294.47;;;4.09;100.00
68226;BME280;55045;49.410;11.030;2023-04-08T05:09:52;98257.25;;;3.88;100.00
68226;BME280;55045;49.410;11.030;2023-04-08T05:12:56;98297.66;;;4.20;100.00
68226;BME280;55045;49.410;11.030;2023-04-08T05:15:59;98301.84;;;4.24;100.00
68226;BME280;55045;49.410;11.030;2023-04-08T05:19:02;98300.03;;;4.31;100.00
68226;BME280;55045;49.410;11.030;2023-04-08T05:22:08;98305.19;;;4.29;100.00
68226;BME280;55045;49.410;11.030;2023-04-08T05:25:11;98303.47;;;4.28;100.00
68226;BME280;55045;49.410;11.030;2023-04-08T05:28:14;98309.44;;;4.30;100.00
68226;BME280;55045;49.410;11.030;2023-04-08T05:31:18;98314.47;;;4.35;100.00
68226;BME280;55045;49.410;11.030;2023-04-08T05:34:22;98312.69;;;4.39;100.00
68226;BME280;55045;49.410;11.030;2023-04-08T05:37:27;98323.06;;;4.34;100.00
68226;BME280;55045;49.410;11.030;2023-04-08T05:40:32;98331.34;;;4.47;100.00
68226;BME280;55045;49.410;11.030;2023-04-08T05:43:35;98334.50;;;4.61;100.00
68226;BME280;55045;49.410;11.030;2023-04-08T05:46:38;98331.97;;;4.58;100.00
68226;BME280;55045;49.410;11.030;2023-04-08T05:49:42;98325.00;;;4.65;100.00
68226;BME280;55045;49.410;11.030;2023-04-08T05:52:46;98326.72;;;4.64;100.00
68226;BME280;55045;49.410;11.030;2023-04-08T05:55:49;98336.22;;;4.59;100.00
68226;BME280;55045;49.410;11.030;2023-04-08T05:58:52;98322.28;;;4.72;100.00
68226;BME280;55045;49.410;11.030;2023-04-08T06:01:56;98339.53;;;4.66;100.00
68226;BME280;55045;49.410;11.030;2023-04-08T06:04:59;98338.56;;;4.70;100.00
68226;BME280;55045;49.410;11.030;2023-04-08T06:08:04;98333.53;;;4.65;100.00
68226;BME280;55045;49.410;11.030;2023-04-08T06:11:08;98351.53;;;4.65;100.00
68226;BME280;55045;49.410;11.030;2023-04-08T06:14:11;98353.16;;;4.69;100.00
68226;BME280;55045;49.410;11.030;2023-04-08T06:17:14;98352.28;;;4.70;100.00
68226;BME280;55045;49.410;11.030;2023-04-08T06:20:17;98355.75;;;4.68;100.00
68226;BME280;55045;49.410;11.030;2023-04-08T06:23:22;98362.72;;;4.62;100.00
68226;BME280;55045;49.410;11.030;2023-04-08T06:26:25;98362.56;;;4.70;100.00
68226;BME280;55045;49.410;11.030;2023-04-08T06:29:29;98360.88;;;4.68;100.00
68226;BME280;55045;49.410;11.030;2023-04-08T06:32:32;98364.25;;;4.70;100.00
68226;BME280;55045;49.410;11.030;2023-04-08T06:35:35;98370.56;;;4.55;100.00
68226;BME280;55045;49.410;11.030;2023-04-08T06:38:40;98366.34;;;4.52;100.00
68226;BME280;55045;49.410;11.030;2023-04-08T06:41:43;98368.13;;;4.50;100.00
68226;BME280;55045;49.410;11.030;2023-04-08T06:45:07;98383.69;;;4.41;100.00
68226;BME280;55045;49.410;11.030;2023-04-08T06:48:11;98398.34;;;4.36;100.00
68226;BME280;55045;49.410;11.030;2023-04-08T06:51:14;98399.41;;;4.24;100.00
68226;BME280;55045;49.410;11.030;2023-04-08T06:54:19;98408.84;;;4.24;100.00
68226;BME280;55045;49.410;11.030;2023-04-08T06:57:22;98403.50;;;4.34;100.00
68226;BME280;55045;49.410;11.030;2023-04-08T07:00:25;98410.41;;;4.32;100.00
68226;BME280;55045;49.410;11.030;2023-04-08T07:03:28;98418.13;;;4.31;100.00
68226;BME280;55045;49.410;11.030;2023-04-08T07:06:31;98421.50;;;4.33;100.00
68226;BME280;55045;49.410;11.030;2023-04-08T07:09:36;98427.78;;;4.17;100.00
68226;BME280;55045;49.410;11.030;2023-04-08T07:12:39;98434.41;;;4.28;100.00
68226;BME280;55045;49.410;11.030;2023-04-08T07:15:42;98434.56;;;4.21;100.00
68226;BME280;55045;49.410;11.030;2023-04-08T07:18:45;98440.41;;;4.29;100.00
68226;BME280;55045;49.410;11.030;2023-04-08T07:21:49;98439.00;;;4.13;100.00
68226;BME280;55045;49.410;11.030;2023-04-08T07:24:55;98439.66;;;4.24;100.00
68226;BME280;55045;49.410;11.030;2023-04-08T07:27:58;98442.13;;;4.28;100.00
68226;BME280;55045;49.410;11.030;2023-04-08T07:31:09;98446.72;;;4.11;100.00
68226;BME280;55045;49.410;11.030;2023-04-08T07:34:12;98451.88;;;4.10;100.00
68226;BME280;55045;49.410;11.030;2023-04-08T07:37:15;98456.00;;;4.18;100.00
68226;BME280;55045;49.410;11.030;2023-04-08T07:40:21;98451.72;;;4.17;100.00
68226;BME280;55045;49.410;11.030;2023-04-08T07:43:24;98461.91;;;4.23;100.00
68226;BME280;55045;49.410;11.030;2023-04-08T07:46:27;98459.22;;;4.31;100.00
68226;BME280;55045;49.410;11.030;2023-04-08T07:49:30;98459.28;;;4.26;100.00
68226;BME280;55045;49.410;11.030;2023-04-08T07:52:34;98467.03;;;4.23;100.00
68226;BME280;55045;49.410;11.030;2023-04-08T07:55:38;98467.81;;;4.27;100.00
68226;BME280;55045;49.410;11.030;2023-04-08T07:58:43;98472.09;;;4.28;100.00
68226;BME280;55045;49.410;11.030;2023-04-08T08:01:46;98475.78;;;4.13;100.00
68226;BME280;55045;49.410;11.030;2023-04-08T08:04:49;98488.72;;;4.05;100.00
68226;BME280;55045;49.410;11.030;2023-04-08T08:07:53;98475.88;;;4.07;100.00
68226;BME280;55045;49.410;11.030;2023-04-08T08:10:57;98476.56;;;4.17;100.00
68226;BME280;55045;49.410;11.030;2023-04-08T08:14:00;98480.84;;;4.16;100.00
68226;BME280;55045;49.410;11.030;2023-04-08T08:17:05;98473.38;;;4.02;100.00
68226;BME280;55045;49.410;11.030;2023-04-08T08:20:09;98480.97;;;4.10;100.00
68226;BME280;55045;49.410;11.030;2023-04-08T08:23:12;98489.47;;;4.12;100.00
68226;BME280;55045;49.410;11.030;2023-04-08T08:26:17;98490.47;;;4.03;100.00
68226;BME280;55045;49.410;11.030;2023-04-08T08:29:20;98497.09;;;4.17;100.00
68226;BME280;55045;49.410;11.030;2023-04-08T08:32:23;98501.16;;;4.28;100.00
68226;BME280;55045;49.410;11.030;2023-04-08T08:35:26;98502.19;;;4.18;100.00
68226;BME280;55045;49.410;11.030;2023-04-08T08:38:29;98503.19;;;4.11;100.00
68226;BME280;55045;49.410;11.030;2023-04-08T08:41:34;98493.84;;;4.05;100.00
68226;BME280;55045;49.410;11.030;2023-04-08T08:44:38;98502.94;;;4.26;100.00
68226;BME280;55045;49.410;11.030;2023-04-08T08:47:42;98511.44;;;4.30;100.00
68226;BME280;55045;49.410;11.030;2023-04-08T08:50:45;98490.31;;;4.13;100.00
68226;BME280;55045;49.410;11.030;2023-04-08T08:53:48;98511.41;;;4.31;100.00
68226;BME280;55045;49.410;11.030;2023-04-08T08:56:53;98512.88;;;4.45;100.00
68226;BME280;55045;49.410;11.030;2023-04-08T08:59:56;98513.69;;;4.47;100.00
68226;BME280;55045;49.410;11.030;2023-04-08T09:03:16;98517.94;;;4.51;100.00
68226;BME280;55045;49.410;11.030;2023-04-08T09:06:20;98523.94;;;4.50;100.00
68226;BME280;55045;49.410;11.030;2023-04-08T09:09:24;98522.94;;;4.57;100.00
68226;BME280;55045;49.410;11.030;2023-04-08T09:12:29;98526.16;;;4.68;100.00
68226;BME280;55045;49.410;11.030;2023-04-08T09:15:32;98523.78;;;4.57;100.00
68226;BME280;55045;49.410;11.030;2023-04-08T09:18:36;98503.97;;;4.64;100.00
68226;BME280;55045;49.410;11.030;2023-04-08T09:21:40;98516.72;;;4.69;100.00
68226;BME280;55045;49.410;11.030;2023-04-08T09:24:44;98527.28;;;5.01;100.00
68226;BME280;55045;49.410;11.030;2023-04-08T09:27:48;98526.44;;;4.99;100.00
68226;BME280;55045;49.410;11.030;2023-04-08T09:30:52;98520.53;;;4.96;100.00
68226;BME280;55045;49.410;11.030;2023-04-08T09:35:00;98520.81;;;4.80;100.00
68226;BME280;55045;49.410;11.030;2023-04-08T09:38:05;98522.91;;;5.05;100.00
68226;BME280;55045;49.410;11.030;2023-04-08T09:41:11;98528.34;;;4.91;100.00
68226;BME280;55045;49.410;11.030;2023-04-08T09:44:16;98530.81;;;4.96;100.00
68226;BME280;55045;49.410;11.030;2023-04-08T09:47:26;98532.81;;;4.78;100.00
68226;BME280;55045;49.410;11.030;2023-04-08T09:50:37;98529.50;;;4.73;100.00
68226;BME280;55045;49.410;11.030;2023-04-08T09:53:46;98537.94;;;4.81;100.00
68226;BME280;55045;49.410;11.030;2023-04-08T09:56:53;98542.13;;;4.85;100.00
68226;BME280;55045;49.410;11.030;2023-04-08T10:00:04;98542.94;;;4.87;100.00
68226;BME280;55045;49.410;11.030;2023-04-08T10:03:26;98547.31;;;4.84;100.00
68226;BME280;55045;49.410;11.030;2023-04-08T10:06:32;98550.47;;;4.97;100.00
68226;BME280;55045;49.410;11.030;2023-04-08T10:09:37;98538.44;;;4.99;100.00
68226;BME280;55045;49.410;11.030;2023-04-08T10:12:42;98545.34;;;4.97;100.00
68226;BME280;55045;49.410;11.030;2023-04-08T10:15:46;98538.28;;;5.08;100.00
68226;BME280;55045;49.410;11.030;2023-04-08T10:18:50;98544.47;;;4.98;100.00
68226;BME280;55045;49.410;11.030;2023-04-08T10:21:57;98537.47;;;5.06;100.00
68226;BME280;55045;49.410;11.030;2023-04-08T10:25:30;98536.91;;;5.33;100.00
68226;BME280;55045;49.410;11.030;2023-04-08T10:28:34;98532.72;;;5.28;100.00
68226;BME280;55045;49.410;11.030;2023-04-08T10:31:39;98530.94;;;5.31;100.00
68226;BME280;55045;49.410;11.030;2023-04-08T10:34:50;98525.38;;;5.51;100.00
68226;BME280;55045;49.410;11.030;2023-04-08T10:37:56;98533.94;;;5.53;100.00
68226;BME280;55045;49.410;11.030;2023-04-08T10:41:00;98522.81;;;5.51;100.00
68226;BME280;55045;49.410;11.030;2023-04-08T10:44:03;98520.41;;;5.82;100.00
68226;BME280;55045;49.410;11.030;2023-04-08T10:47:07;98525.03;;;5.68;100.00
68226;BME280;55045;49.410;11.030;2023-04-08T10:50:15;98507.78;;;5.71;100.00
68226;BME280;55045;49.410;11.030;2023-04-08T10:53:25;98523.22;;;5.71;100.00
68226;BME280;55045;49.410;11.030;2023-04-08T10:56:28;98524.84;;;5.75;100.00
68226;BME280;55045;49.410;11.030;2023-04-08T10:59:31;98522.56;;;5.63;100.00
68226;BME280;55045;49.410;11.030;2023-04-08T11:02:37;98522.16;;;5.80;100.00
68226;BME280;55045;49.410;11.030;2023-04-08T11:05:40;98522.13;;;5.83;100.00
68226;BME280;55045;49.410;11.030;2023-04-08T11:08:45;98520.56;;;5.76;100.00
68226;BME280;55045;49.410;11.030;2023-04-08T11:11:49;98525.78;;;5.71;100.00
68226;BME280;55045;49.410;11.030;2023-04-08T11:14:54;98526.34;;;5.86;100.00
68226;BME280;55045;49.410;11.030;2023-04-08T11:17:58;98518.31;;;5.99;100.00
68226;BME280;55045;49.410;11.030;2023-04-08T11:21:05;98523.63;;;5.93;100.00
68226;BME280;55045;49.410;11.030;2023-04-08T11:24:12;98523.63;;;5.93;100.00
68226;BME280;55045;49.410;11.030;2023-04-08T11:27:15;98519.50;;;6.22;100.00
68226;BME280;55045;49.410;11.030;2023-04-08T11:30:18;98519.06;;;6.40;100.00
68226;BME280;55045;49.410;11.030;2023-04-08T11:33:24;98517.88;;;6.86;100.00
68226;BME280;55045;49.410;11.030;2023-04-08T11:36:27;98520.31;;;6.90;100.00
68226;BME280;55045;49.410;11.030;2023-04-08T11:39:32;98514.38;;;6.88;100.00
68226;BME280;55045;49.410;11.030;2023-04-08T11:42:36;98519.66;;;6.50;100.00
68226;BME280;55045;49.410;11.030;2023-04-08T11:45:40;98516.19;;;6.51;100.00
68226;BME280;55045;49.410;11.030;2023-04-08T11:48:56;98523.31;;;6.41;100.00
68226;BME280;55045;49.410;11.030;2023-04-08T11:52:00;98517.75;;;6.24;100.00
68226;BME280;55045;49.410;11.030;2023-04-08T11:55:05;98516.66;;;6.32;100.00
68226;BME280;55045;49.410;11.030;2023-04-08T11:58:08;98516.66;;;6.34;100.00
68226;BME280;55045;49.410;11.030;2023-04-08T12:01:12;98520.81;;;6.38;100.00
68226;BME280;55045;49.410;11.030;2023-04-08T12:04:15;98520.66;;;6.46;100.00
68226;BME280;55045;49.410;11.030;2023-04-08T12:07:19;98522.06;;;6.57;100.00
68226;BME280;55045;49.410;11.030;2023-04-08T12:10:23;98515.88;;;6.64;100.00
68226;BME280;55045;49.410;11.030;2023-04-08T12:13:27;98519.63;;;6.84;100.00
68226;BME280;55045;49.410;11.030;2023-04-08T12:16:32;98513.72;;;7.11;100.00
68226;BME280;55045;49.410;11.030;2023-04-08T12:19:35;98508.25;;;7.22;100.00
68226;BME280;55045;49.410;11.030;2023-04-08T12:22:39;98509.53;;;7.38;100.00
68226;BME280;55045;49.410;11.030;2023-04-08T12:25:44;98503.88;;;7.26;100.00
68226;BME280;55045;49.410;11.030;2023-04-08T12:28:47;98502.00;;;7.60;100.00
68226;BME280;55045;49.410;11.030;2023-04-08T12:31:50;98507.63;;;7.43;100.00
68226;BME280;55045;49.410;11.030;2023-04-08T12:34:54;98505.13;;;7.70;100.00
68226;BME280;55045;49.410;11.030;2023-04-08T12:37:57;98510.75;;;7.25;100.00
68226;BME280;55045;49.410;11.030;2023-04-08T12:41:02;98517.47;;;7.31;100.00
68226;BME280;55045;49.410;11.030;2023-04-08T12:44:05;98518.47;;;7.27;100.00
68226;BME280;55045;49.410;11.030;2023-04-08T12:47:08;98522.00;;;7.22;100.00
68226;BME280;55045;49.410;11.030;2023-04-08T12:50:12;98520.66;;;7.09;100.00
68226;BME280;55045;49.410;11.030;2023-04-08T12:53:16;98519.78;;;7.10;100.00
68226;BME280;55045;49.410;11.030;2023-04-08T12:56:20;98515.25;;;7.18;100.00
68226;BME280;55045;49.410;11.030;2023-04-08T12:59:23;98508.41;;;7.17;100.00
68226;BME280;55045;49.410;11.030;2023-04-08T13:02:26;98513.56;;;7.17;100.00
68226;BME280;55045;49.410;11.030;2023-04-08T13:05:30;98513.31;;;7.25;100.00
68226;BME280;55045;49.410;11.030;2023-04-08T13:08:44;98514.31;;;7.21;100.00
68226;BME280;55045;49.410;11.030;2023-04-08T13:11:49;98511.56;;;7.27;100.00
68226;BME280;55045;49.410;11.030;2023-04-08T13:14:52;98518.53;;;7.23;100.00
68226;BME280;55045;49.410;11.030;2023-04-08T13:17:56;98513.38;;;7.23;100.00
68226;BME280;55045;49.410;11.030;2023-04-08T13:20:59;98523.09;;;7.14;100.00
68226;BME280;55045;49.410;11.030;2023-04-08T13:24:02;98519.78;;;7.10;100.00
68226;BME280;55045;49.410;11.030;2023-04-08T13:27:07;98522.25;;;7.13;100.00
68226;BME280;55045;49.410;11.030;2023-04-08T13:30:11;98523.78;;;7.20;100.00
68226;BME280;55045;49.410;11.030;2023-04-08T13:33:14;98524.00;;;7.13;100.00
68226;BME280;55045;49.410;11.030;2023-04-08T13:36:18;98517.72;;;7.21;100.00
68226;BME280;55045;49.410;11.030;2023-04-08T13:39:21;98516.69;;;7.29;100.00
68226;BME280;55045;49.410;11.030;2023-04-08T13:42:26;98512.38;;;7.29;100.00
68226;BME280;55045;49.410;11.030;2023-04-08T13:45:29;98510.38;;;7.39;100.00
68226;BME280;55045;49.410;11.030;2023-04-08T13:48:32;98509.41;;;7.41;100.00
68226;BME280;55045;49.410;11.030;2023-04-08T13:51:35;98509.00;;;7.55;100.00
68226;BME280;55045;49.410;11.030;2023-04-08T13:54:38;98511.47;;;7.60;100.00
68226;BME280;55045;49.410;11.030;2023-04-08T13:57:43;98511.59;;;7.55;100.00
68226;BME280;55045;49.410;11.030;2023-04-08T14:00:47;98513.84;;;7.66;100.00
68226;BME280;55045;49.410;11.030;2023-04-08T14:03:52;98509.84;;;7.56;100.00
68226;BME280;55045;49.410;11.030;2023-04-08T14:06:55;98511.06;;;7.44;100.00
68226;BME280;55045;49.410;11.030;2023-04-08T14:09:59;98511.00;;;7.47;100.00
68226;BME280;55045;49.410;11.030;2023-04-08T14:13:03;98507.88;;;7.64;100.00
68226;BME280;55045;49.410;11.030;2023-04-08T14:16:07;98510.88;;;7.79;100.00
68226;BME280;55045;49.410;11.030;2023-04-08T14:19:10;98504.69;;;7.84;100.00
68226;BME280;55045;49.410;11.030;2023-04-08T14:22:13;98502.50;;;7.99;100.00
68226;BME280;55045;49.410;11.030;2023-04-08T14:25:17;98505.06;;;8.26;100.00
68226;BME280;55045;49.410;11.030;2023-04-08T14:28:22;98510.81;;;8.35;100.00
68226;BME280;55045;49.410;11.030;2023-04-08T14:31:25;98500.84;;;8.23;100.00
68226;BME280;55045;49.410;11.030;2023-04-08T14:34:29;98501.38;;;8.34;100.00
68226;BME280;55045;49.410;11.030;2023-04-08T14:37:32;98498.88;;;8.31;100.00
68226;BME280;55045;49.410;11.030;2023-04-08T14:40:35;98494.41;;;8.36;100.00
68226;BME280;55045;49.410;11.030;2023-04-08T14:43:40;98494.88;;;8.49;100.00
68226;BME280;55045;49.410;11.030;2023-04-08T14:46:43;98493.06;;;8.51;100.00
68226;BME280;55045;49.410;11.030;2023-04-08T14:49:46;98493.69;;;8.58;100.00
68226;BME280;55045;49.410;11.030;2023-04-08T14:52:49;98484.72;;;8.43;100.00
68226;BME280;55045;49.410;11.030;2023-04-08T14:55:53;98492.22;;;8.51;100.00
68226;BME280;55045;49.410;11.030;2023-04-08T14:58:57;98494.69;;;8.54;100.00
68226;BME280;55045;49.410;11.030;2023-04-08T15:02:00;98486.56;;;8.40;100.00
68226;BME280;55045;49.410;11.030;2023-04-08T15:05:04;98492.72;;;8.35;100.00
68226;BME280;55045;49.410;11.030;2023-04-08T15:08:08;98494.72;;;8.26;100.00
68226;BME280;55045;49.410;11.030;2023-04-08T15:11:11;98418.81;;;7.78;100.00
68226;BME280;55045;49.410;11.030;2023-04-08T15:14:16;98498.28;;;8.23;100.00
68226;BME280;55045;49.410;11.030;2023-04-08T15:17:19;98501.75;;;8.22;100.00
68226;BME280;55045;49.410;11.030;2023-04-08T15:20:22;98494.94;;;8.20;100.00
68226;BME280;55045;49.410;11.030;2023-04-08T15:23:26;98499.06;;;8.25;100.00
68226;BME280;55045;49.410;11.030;2023-04-08T15:26:29;98506.91;;;8.22;100.00
68226;BME280;55045;49.410;11.030;2023-04-08T15:29:34;98510.41;;;8.21;100.00
68226;BME280;55045;49.410;11.030;2023-04-08T15:35:00;98521.72;;;8.17;100.00
68226;BME280;55045;49.410;11.030;2023-04-08T15:38:03;98524.91;;;8.25;100.00
68226;BME280;55045;49.410;11.030;2023-04-08T15:41:14;98525.00;;;8.22;100.00
68226;BME280;55045;49.410;11.030;2023-04-08T15:44:17;98518.50;;;8.39;100.00
68226;BME280;55045;49.410;11.030;2023-04-08T15:47:20;98524.63;;;8.34;100.00
68226;BME280;55045;49.410;11.030;2023-04-08T15:50:28;98521.09;;;8.37;100.00
68226;BME280;55045;49.410;11.030;2023-04-08T15:53:32;98527.25;;;8.33;100.00
68226;BME280;55045;49.410;11.030;2023-04-08T15:56:35;98529.09;;;8.29;100.00
68226;BME280;55045;49.410;11.030;2023-04-08T15:59:38;98530.78;;;8.30;100.00
68226;BME280;55045;49.410;11.030;2023-04-08T16:02:41;98534.31;;;8.28;100.00
68226;BME280;55045;49.410;11.030;2023-04-08T16:05:46;98531.91;;;8.22;100.00
68226;BME280;55045;49.410;11.030;2023-04-08T16:08:49;98543.09;;;8.22;100.00
68226;BME280;55045;49.410;11.030;2023-04-08T16:11:53;98544.97;;;8.17;100.00